Hempstead, New York
Current Conditions -  °F | °C
As of 9:51 AM on Wednesday 22 Oct 2014 (Local Time) from KJFK Reporting Station
Light Rain Light Rain  
Wind Chill: 13°   Ceiling: 2000
Heat Index: 13°   Visibility: 10mi
Dew Point: 11°   Wind: 17mph
Humidity: 86%   Direction: 20°NNE
Pressure: 29.93"   Gusts: NA
Location:  40.71°N, 73.62°W
Report Text: KJFK 221351Z 02015KT 10SM -RA SCT013 OVC020 13/11 A2993 RMK AO2 TSE03 SLP133 P0007 T01280106
Loading
Personal Weather Stations






























Interactive Weather Map
Tropical Storm Tracking
New forecast layout! Learn more

10-Day Weather Forecast

Advertisements
Track Severe Weather on mobile